Terminal Aerodrome Forecast
Issued by NWS

Home | Current Version | Previous Version | Text Only | Print | Product List | Glossary On
Versions: 1 2 3 4 5 6 7 8 9 10 11 12 13 14 15 16 17 18 19 20 21 22 23 24
000
FTUS45 KRIW 311127
TAFPNA
TAF
KPNA 311127Z 3112/0112 29005KT P6SM FEW250
     FM311500 VRB05KT P6SM SCT250
     FM312000 29009KT P6SM FEW110
     FM010300 30006KT P6SM SCT250
      AMD LTD TO CLD VIS AND WIND=

USA.gov is the U.S. government's official web portal to all federal, state and local government web resources and services.